sensor_id;sensor_type;location;lat;lon;timestamp;pressure;altitude;pressure_sealevel;temperature;humidity
49915;BME280;35806;47.958;13.158;2023-02-26T00:00:14;93652.60;;;-3.21;70.31
49915;BME280;35806;47.958;13.158;2023-02-26T00:02:43;93655.49;;;-2.99;70.29
49915;BME280;35806;47.958;13.158;2023-02-26T00:05:11;93656.91;;;-3.62;72.52
49915;BME280;35806;47.958;13.158;2023-02-26T00:07:39;93656.16;;;-3.38;72.29
49915;BME280;35806;47.958;13.158;2023-02-26T00:10:09;93656.31;;;-3.53;71.82
49915;BME280;35806;47.958;13.158;2023-02-26T00:12:37;93654.41;;;-2.65;68.95
49915;BME280;35806;47.958;13.158;2023-02-26T00:15:05;93658.73;;;-2.38;67.62
49915;BME280;35806;47.958;13.158;2023-02-26T00:17:39;93654.42;;;-2.93;68.51
49915;BME280;35806;47.958;13.158;2023-02-26T00:20:10;93655.60;;;-2.42;67.44
49915;BME280;35806;47.958;13.158;2023-02-26T00:22:40;93656.39;;;-2.53;66.77
49915;BME280;35806;47.958;13.158;2023-02-26T00:25:08;93655.68;;;-2.39;67.18
49915;BME280;35806;47.958;13.158;2023-02-26T00:27:36;93652.91;;;-2.83;66.64
49915;BME280;35806;47.958;13.158;2023-02-26T00:30:05;93654.73;;;-2.05;66.51
49915;BME280;35806;47.958;13.158;2023-02-26T00:32:33;93655.39;;;-2.36;66.42
49915;BME280;35806;47.958;13.158;2023-02-26T00:35:02;93660.97;;;-2.65;66.61
49915;BME280;35806;47.958;13.158;2023-02-26T00:37:55;93657.69;;;-3.25;68.61
49915;BME280;35806;47.958;13.158;2023-02-26T00:40:34;93653.61;;;-2.57;67.51
49915;BME280;35806;47.958;13.158;2023-02-26T00:43:24;93655.57;;;-2.21;67.02
49915;BME280;35806;47.958;13.158;2023-02-26T00:46:09;93652.98;;;-2.03;64.20
49915;BME280;35806;47.958;13.158;2023-02-26T00:48:49;93657.36;;;-2.66;65.54
49915;BME280;35806;47.958;13.158;2023-02-26T00:51:25;93662.64;;;-3.49;67.21
49915;BME280;35806;47.958;13.158;2023-02-26T00:54:00;93664.25;;;-2.85;66.48
49915;BME280;35806;47.958;13.158;2023-02-26T00:56:29;93669.61;;;-3.54;68.34
49915;BME280;35806;47.958;13.158;2023-02-26T00:58:56;93661.60;;;-3.02;67.48
49915;BME280;35806;47.958;13.158;2023-02-26T01:01:23;93665.18;;;-2.49;66.20
49915;BME280;35806;47.958;13.158;2023-02-26T01:03:51;93669.90;;;-3.45;68.40
49915;BME280;35806;47.958;13.158;2023-02-26T01:06:27;93665.18;;;-3.19;65.95
49915;BME280;35806;47.958;13.158;2023-02-26T01:09:07;93664.64;;;-2.57;66.30
49915;BME280;35806;47.958;13.158;2023-02-26T01:11:37;93660.57;;;-2.74;66.46
49915;BME280;35806;47.958;13.158;2023-02-26T01:14:05;93660.73;;;-3.00;66.57
49915;BME280;35806;47.958;13.158;2023-02-26T01:16:36;93666.90;;;-3.06;66.93
49915;BME280;35806;47.958;13.158;2023-02-26T01:19:12;93661.85;;;-2.50;66.43
49915;BME280;35806;47.958;13.158;2023-02-26T01:21:49;93663.52;;;-3.18;67.45
49915;BME280;35806;47.958;13.158;2023-02-26T01:24:28;93659.19;;;-2.80;66.13
49915;BME280;35806;47.958;13.158;2023-02-26T01:26:58;93664.81;;;-3.05;67.10
49915;BME280;35806;47.958;13.158;2023-02-26T01:29:25;93660.97;;;-3.46;68.27
49915;BME280;35806;47.958;13.158;2023-02-26T01:31:56;93660.58;;;-2.88;66.52
49915;BME280;35806;47.958;13.158;2023-02-26T01:34:33;93660.86;;;-3.56;67.46
49915;BME280;35806;47.958;13.158;2023-02-26T01:37:09;93661.88;;;-3.04;66.80
49915;BME280;35806;47.958;13.158;2023-02-26T01:39:41;93663.50;;;-3.49;67.84
49915;BME280;35806;47.958;13.158;2023-02-26T01:42:13;93667.93;;;-3.09;66.32
49915;BME280;35806;47.958;13.158;2023-02-26T01:44:51;93668.96;;;-2.32;64.64
49915;BME280;35806;47.958;13.158;2023-02-26T01:47:32;93675.69;;;-3.23;66.52
49915;BME280;35806;47.958;13.158;2023-02-26T01:50:16;93676.53;;;-3.60;67.26
49915;BME280;35806;47.958;13.158;2023-02-26T01:53:16;93682.41;;;-3.26;67.78
49915;BME280;35806;47.958;13.158;2023-02-26T01:55:49;93678.08;;;-3.29;66.78
49915;BME280;35806;47.958;13.158;2023-02-26T01:58:18;93678.53;;;-3.38;65.98
49915;BME280;35806;47.958;13.158;2023-02-26T02:15:39;93692.35;;;-3.37;66.02
49915;BME280;35806;47.958;13.158;2023-02-26T02:18:13;93701.15;;;-3.22;66.65
49915;BME280;35806;47.958;13.158;2023-02-26T02:20:59;93700.48;;;-3.39;65.23
49915;BME280;35806;47.958;13.158;2023-02-26T02:23:41;93700.95;;;-3.27;64.77
49915;BME280;35806;47.958;13.158;2023-02-26T02:27:00;93702.87;;;-2.79;65.01
49915;BME280;35806;47.958;13.158;2023-02-26T02:30:27;93711.56;;;-3.21;64.73
49915;BME280;35806;47.958;13.158;2023-02-26T02:33:01;93708.48;;;-3.18;64.82
49915;BME280;35806;47.958;13.158;2023-02-26T02:35:33;93712.21;;;-3.14;64.85
49915;BME280;35806;47.958;13.158;2023-02-26T02:38:06;93717.22;;;-4.21;67.19
49915;BME280;35806;47.958;13.158;2023-02-26T02:40:42;93720.80;;;-3.61;67.55
49915;BME280;35806;47.958;13.158;2023-02-26T02:43:14;93716.53;;;-3.23;64.91
49915;BME280;35806;47.958;13.158;2023-02-26T02:45:44;93721.39;;;-3.01;64.74
49915;BME280;35806;47.958;13.158;2023-02-26T02:48:17;93722.67;;;-3.46;65.12
49915;BME280;35806;47.958;13.158;2023-02-26T02:50:52;93728.52;;;-3.16;64.32
49915;BME280;35806;47.958;13.158;2023-02-26T02:53:22;93726.82;;;-3.69;66.04
49915;BME280;35806;47.958;13.158;2023-02-26T02:55:55;93733.24;;;-4.58;68.62
49915;BME280;35806;47.958;13.158;2023-02-26T02:58:27;93736.16;;;-4.42;67.89
49915;BME280;35806;47.958;13.158;2023-02-26T03:00:59;93738.87;;;-3.00;65.86
49915;BME280;35806;47.958;13.158;2023-02-26T03:03:37;93741.36;;;-3.50;66.20
49915;BME280;35806;47.958;13.158;2023-02-26T03:06:07;93747.40;;;-3.59;65.97
49915;BME280;35806;47.958;13.158;2023-02-26T03:08:38;93750.95;;;-4.30;68.53
49915;BME280;35806;47.958;13.158;2023-02-26T03:11:05;93751.19;;;-3.40;66.12
49915;BME280;35806;47.958;13.158;2023-02-26T03:13:33;93759.54;;;-3.97;67.12
49915;BME280;35806;47.958;13.158;2023-02-26T03:16:13;93760.85;;;-3.00;65.48
49915;BME280;35806;47.958;13.158;2023-02-26T03:18:52;93767.43;;;-4.38;68.60
49915;BME280;35806;47.958;13.158;2023-02-26T03:21:26;93769.84;;;-4.44;69.13
49915;BME280;35806;47.958;13.158;2023-02-26T03:23:59;93767.99;;;-4.74;69.31
49915;BME280;35806;47.958;13.158;2023-02-26T03:26:30;93766.67;;;-3.47;66.09
49915;BME280;35806;47.958;13.158;2023-02-26T03:29:05;93771.16;;;-2.91;65.34
49915;BME280;35806;47.958;13.158;2023-02-26T03:31:38;93778.82;;;-4.27;68.10
49915;BME280;35806;47.958;13.158;2023-02-26T03:35:41;93782.02;;;-4.14;67.87
49915;BME280;35806;47.958;13.158;2023-02-26T03:38:15;93778.70;;;-2.42;62.98
49915;BME280;35806;47.958;13.158;2023-02-26T03:40:48;93786.46;;;-2.41;62.27
49915;BME280;35806;47.958;13.158;2023-02-26T03:43:19;93789.81;;;-2.00;61.97
49915;BME280;35806;47.958;13.158;2023-02-26T03:45:50;93791.26;;;-2.74;62.00
49915;BME280;35806;47.958;13.158;2023-02-26T03:48:25;93793.00;;;-3.02;61.61
49915;BME280;35806;47.958;13.158;2023-02-26T03:50:57;93795.69;;;-2.53;62.79
49915;BME280;35806;47.958;13.158;2023-02-26T03:53:29;93801.12;;;-3.57;63.65
49915;BME280;35806;47.958;13.158;2023-02-26T03:56:02;93806.33;;;-3.53;64.09
49915;BME280;35806;47.958;13.158;2023-02-26T03:58:31;93808.82;;;-2.87;62.56
49915;BME280;35806;47.958;13.158;2023-02-26T04:01:03;93817.52;;;-3.98;65.49
49915;BME280;35806;47.958;13.158;2023-02-26T04:03:35;93822.14;;;-3.75;64.37
49915;BME280;35806;47.958;13.158;2023-02-26T04:06:05;93823.26;;;-4.90;67.50
49915;BME280;35806;47.958;13.158;2023-02-26T04:08:32;93823.62;;;-4.57;66.69
49915;BME280;35806;47.958;13.158;2023-02-26T04:11:05;93824.24;;;-4.43;67.79
49915;BME280;35806;47.958;13.158;2023-02-26T04:13:33;93828.01;;;-4.36;66.67
49915;BME280;35806;47.958;13.158;2023-02-26T04:16:00;93833.18;;;-4.03;65.49
49915;BME280;35806;47.958;13.158;2023-02-26T04:18:27;93829.60;;;-2.77;62.62
49915;BME280;35806;47.958;13.158;2023-02-26T04:20:54;93840.35;;;-3.80;64.70
49915;BME280;35806;47.958;13.158;2023-02-26T04:23:21;93837.28;;;-3.28;63.20
49915;BME280;35806;47.958;13.158;2023-02-26T04:25:47;93834.49;;;-2.55;61.56
49915;BME280;35806;47.958;13.158;2023-02-26T04:28:15;93838.42;;;-1.73;60.30
49915;BME280;35806;47.958;13.158;2023-02-26T04:30:42;93843.94;;;-3.04;61.36
49915;BME280;35806;47.958;13.158;2023-02-26T04:33:10;93846.47;;;-3.03;62.03
49915;BME280;35806;47.958;13.158;2023-02-26T04:35:38;93848.77;;;-2.35;60.44
49915;BME280;35806;47.958;13.158;2023-02-26T04:38:05;93848.56;;;-2.11;59.66
49915;BME280;35806;47.958;13.158;2023-02-26T04:40:33;93849.07;;;-3.05;61.32
49915;BME280;35806;47.958;13.158;2023-02-26T04:43:00;93849.05;;;-1.97;58.85
49915;BME280;35806;47.958;13.158;2023-02-26T04:45:27;93848.78;;;-2.03;59.18
49915;BME280;35806;47.958;13.158;2023-02-26T04:47:54;93848.59;;;-2.10;58.88
49915;BME280;35806;47.958;13.158;2023-02-26T04:50:21;93850.17;;;-1.58;57.71
49915;BME280;35806;47.958;13.158;2023-02-26T04:52:47;93853.30;;;-2.27;59.20
49915;BME280;35806;47.958;13.158;2023-02-26T04:55:15;93855.50;;;-1.78;57.33
49915;BME280;35806;47.958;13.158;2023-02-26T04:57:42;93862.18;;;-2.93;59.43
49915;BME280;35806;47.958;13.158;2023-02-26T05:00:10;93865.75;;;-2.55;58.71
49915;BME280;35806;47.958;13.158;2023-02-26T05:02:38;93867.25;;;-2.05;58.78
49915;BME280;35806;47.958;13.158;2023-02-26T05:05:05;93870.95;;;-1.87;58.33
49915;BME280;35806;47.958;13.158;2023-02-26T05:07:32;93874.60;;;-2.19;58.62
49915;BME280;35806;47.958;13.158;2023-02-26T05:09:59;93881.96;;;-2.50;59.22
49915;BME280;35806;47.958;13.158;2023-02-26T05:12:27;93883.32;;;-2.00;57.81
49915;BME280;35806;47.958;13.158;2023-02-26T05:14:54;93886.50;;;-1.71;57.58
49915;BME280;35806;47.958;13.158;2023-02-26T05:17:21;93887.19;;;-1.57;56.93
49915;BME280;35806;47.958;13.158;2023-02-26T05:19:48;93887.46;;;-2.22;57.99
49915;BME280;35806;47.958;13.158;2023-02-26T05:22:15;93891.49;;;-1.97;57.05
49915;BME280;35806;47.958;13.158;2023-02-26T05:24:42;93893.55;;;-2.48;58.43
49915;BME280;35806;47.958;13.158;2023-02-26T05:27:10;93896.62;;;-1.77;57.78
49915;BME280;35806;47.958;13.158;2023-02-26T05:29:37;93897.45;;;-2.30;58.37
49915;BME280;35806;47.958;13.158;2023-02-26T05:32:04;93899.70;;;-2.40;58.80
49915;BME280;35806;47.958;13.158;2023-02-26T05:34:31;93901.01;;;-1.65;57.52
49915;BME280;35806;47.958;13.158;2023-02-26T05:36:58;93899.04;;;-1.38;56.48
49915;BME280;35806;47.958;13.158;2023-02-26T05:39:26;93902.79;;;-1.50;56.95
49915;BME280;35806;47.958;13.158;2023-02-26T05:41:53;93906.35;;;-1.91;57.06
49915;BME280;35806;47.958;13.158;2023-02-26T05:44:20;93909.32;;;-1.95;56.79
49915;BME280;35806;47.958;13.158;2023-02-26T05:46:46;93912.74;;;-1.52;56.50
49915;BME280;35806;47.958;13.158;2023-02-26T05:49:13;93917.48;;;-3.22;60.52
49915;BME280;35806;47.958;13.158;2023-02-26T05:51:40;93918.20;;;-2.34;58.32
49915;BME280;35806;47.958;13.158;2023-02-26T05:54:08;93924.40;;;-2.78;59.95
49915;BME280;35806;47.958;13.158;2023-02-26T05:56:35;93926.52;;;-2.69;59.52
49915;BME280;35806;47.958;13.158;2023-02-26T05:59:02;93927.25;;;-4.51;65.12
49915;BME280;35806;47.958;13.158;2023-02-26T06:01:29;93926.44;;;-3.51;62.18
49915;BME280;35806;47.958;13.158;2023-02-26T06:03:56;93934.27;;;-3.66;62.94
49915;BME280;35806;47.958;13.158;2023-02-26T06:06:23;93936.47;;;-3.07;60.72
49915;BME280;35806;47.958;13.158;2023-02-26T06:08:50;93942.30;;;-2.40;59.64
49915;BME280;35806;47.958;13.158;2023-02-26T06:11:17;93948.04;;;-2.74;59.53
49915;BME280;35806;47.958;13.158;2023-02-26T06:13:44;93952.20;;;-2.60;59.35
49915;BME280;35806;47.958;13.158;2023-02-26T06:16:11;93955.65;;;-1.91;58.49
49915;BME280;35806;47.958;13.158;2023-02-26T06:18:38;93960.72;;;-2.65;59.49
49915;BME280;35806;47.958;13.158;2023-02-26T06:21:05;93967.47;;;-2.66;59.32
49915;BME280;35806;47.958;13.158;2023-02-26T06:23:31;93967.98;;;-3.30;61.43
49915;BME280;35806;47.958;13.158;2023-02-26T06:25:59;93971.82;;;-2.02;58.87
49915;BME280;35806;47.958;13.158;2023-02-26T06:28:26;93973.94;;;-2.59;58.64
49915;BME280;35806;47.958;13.158;2023-02-26T06:30:54;93977.03;;;-3.04;60.50
49915;BME280;35806;47.958;13.158;2023-02-26T06:33:22;93980.29;;;-2.74;59.92
49915;BME280;35806;47.958;13.158;2023-02-26T06:35:49;93984.63;;;-3.07;59.94
49915;BME280;35806;47.958;13.158;2023-02-26T06:38:18;93987.11;;;-2.47;59.35
49915;BME280;35806;47.958;13.158;2023-02-26T06:40:46;93990.72;;;-3.34;60.93
49915;BME280;35806;47.958;13.158;2023-02-26T06:43:13;93994.06;;;-3.69;62.33
49915;BME280;35806;47.958;13.158;2023-02-26T06:45:40;93998.61;;;-2.73;60.32
49915;BME280;35806;47.958;13.158;2023-02-26T06:48:07;94000.42;;;-2.56;59.86
49915;BME280;35806;47.958;13.158;2023-02-26T06:50:34;94002.25;;;-2.62;60.46
49915;BME280;35806;47.958;13.158;2023-02-26T06:53:01;94008.21;;;-2.47;60.23
49915;BME280;35806;47.958;13.158;2023-02-26T06:55:28;94006.49;;;-2.72;61.04
49915;BME280;35806;47.958;13.158;2023-02-26T06:58:01;94010.62;;;-3.42;61.04
49915;BME280;35806;47.958;13.158;2023-02-26T07:00:29;94014.16;;;-2.45;59.45
49915;BME280;35806;47.958;13.158;2023-02-26T07:05:07;94022.91;;;-2.10;58.59
49915;BME280;35806;47.958;13.158;2023-02-26T07:07:34;94025.14;;;-2.39;58.22
49915;BME280;35806;47.958;13.158;2023-02-26T07:10:08;94031.14;;;-2.22;58.24
49915;BME280;35806;47.958;13.158;2023-02-26T07:12:36;94031.78;;;-1.76;56.85
49915;BME280;35806;47.958;13.158;2023-02-26T07:15:04;94034.95;;;-1.39;57.31
49915;BME280;35806;47.958;13.158;2023-02-26T07:17:32;94037.32;;;-1.62;56.92
49915;BME280;35806;47.958;13.158;2023-02-26T07:20:10;94046.61;;;-2.84;57.39
49915;BME280;35806;47.958;13.158;2023-02-26T07:22:37;94047.50;;;-3.12;58.70
49915;BME280;35806;47.958;13.158;2023-02-26T07:25:05;94054.70;;;-3.12;59.78
49915;BME280;35806;47.958;13.158;2023-02-26T07:27:33;94061.61;;;-3.90;62.09
49915;BME280;35806;47.958;13.158;2023-02-26T07:30:01;94062.98;;;-3.03;60.21
49915;BME280;35806;47.958;13.158;2023-02-26T07:32:28;94067.82;;;-2.72;59.73
49915;BME280;35806;47.958;13.158;2023-02-26T07:34:55;94069.62;;;-2.83;59.67
49915;BME280;35806;47.958;13.158;2023-02-26T07:37:22;94072.81;;;-3.58;60.70
49915;BME280;35806;47.958;13.158;2023-02-26T07:39:50;94077.53;;;-2.66;58.91
49915;BME280;35806;47.958;13.158;2023-02-26T07:42:18;94082.60;;;-2.38;58.91
49915;BME280;35806;47.958;13.158;2023-02-26T07:44:45;94078.59;;;-2.62;58.69
49915;BME280;35806;47.958;13.158;2023-02-26T07:47:13;94079.83;;;-2.00;58.39
49915;BME280;35806;47.958;13.158;2023-02-26T07:49:40;94078.20;;;-1.62;58.00
49915;BME280;35806;47.958;13.158;2023-02-26T07:52:07;94080.04;;;-1.67;57.08
49915;BME280;35806;47.958;13.158;2023-02-26T07:54:34;94086.62;;;-2.68;58.04
49915;BME280;35806;47.958;13.158;2023-02-26T07:57:03;94087.99;;;-1.46;57.12
49915;BME280;35806;47.958;13.158;2023-02-26T07:59:30;94092.93;;;-2.11;57.28
49915;BME280;35806;47.958;13.158;2023-02-26T08:01:57;94097.82;;;-2.60;58.64
49915;BME280;35806;47.958;13.158;2023-02-26T08:04:25;94098.77;;;-1.97;58.13
49915;BME280;35806;47.958;13.158;2023-02-26T08:06:52;94097.95;;;-1.87;56.83
49915;BME280;35806;47.958;13.158;2023-02-26T08:09:20;94101.17;;;-1.40;56.93
49915;BME280;35806;47.958;13.158;2023-02-26T08:11:47;94102.47;;;-1.36;55.96
49915;BME280;35806;47.958;13.158;2023-02-26T08:14:15;94108.18;;;-0.98;54.60
49915;BME280;35806;47.958;13.158;2023-02-26T08:16:43;94106.48;;;0.14;54.66
49915;BME280;35806;47.958;13.158;2023-02-26T08:19:10;94106.34;;;0.11;53.20
49915;BME280;35806;47.958;13.158;2023-02-26T08:21:38;94109.15;;;-0.48;53.58
49915;BME280;35806;47.958;13.158;2023-02-26T08:24:05;94106.39;;;-0.21;54.29
49915;BME280;35806;47.958;13.158;2023-02-26T08:26:35;94106.88;;;0.12;54.12
49915;BME280;35806;47.958;13.158;2023-02-26T08:29:03;94111.99;;;0.68;51.84
49915;BME280;35806;47.958;13.158;2023-02-26T08:31:31;94110.19;;;1.13;52.40
49915;BME280;35806;47.958;13.158;2023-02-26T08:33:59;94115.72;;;0.64;52.38
49915;BME280;35806;47.958;13.158;2023-02-26T08:36:26;94120.11;;;0.89;50.19
49915;BME280;35806;47.958;13.158;2023-02-26T08:38:53;94123.56;;;1.39;50.62
49915;BME280;35806;47.958;13.158;2023-02-26T08:41:21;94130.79;;;-0.79;53.52
49915;BME280;35806;47.958;13.158;2023-02-26T08:43:48;94136.95;;;-1.60;56.57
49915;BME280;35806;47.958;13.158;2023-02-26T08:46:16;94140.21;;;-1.81;58.86
49915;BME280;35806;47.958;13.158;2023-02-26T08:48:43;94142.37;;;-1.13;58.96
49915;BME280;35806;47.958;13.158;2023-02-26T08:51:10;94143.32;;;-0.25;55.43
49915;BME280;35806;47.958;13.158;2023-02-26T08:53:37;94143.21;;;-0.14;55.83
49915;BME280;35806;47.958;13.158;2023-02-26T08:56:05;94146.74;;;0.44;51.67
49915;BME280;35806;47.958;13.158;2023-02-26T08:58:33;94152.52;;;0.44;51.61
49915;BME280;35806;47.958;13.158;2023-02-26T09:01:00;94151.19;;;1.29;51.17
49915;BME280;35806;47.958;13.158;2023-02-26T09:03:27;94157.23;;;0.99;49.79
49915;BME280;35806;47.958;13.158;2023-02-26T09:05:54;94160.01;;;0.72;49.47
49915;BME280;35806;47.958;13.158;2023-02-26T09:08:22;94158.92;;;0.91;51.18
49915;BME280;35806;47.958;13.158;2023-02-26T09:10:49;94165.30;;;1.96;48.45
49915;BME280;35806;47.958;13.158;2023-02-26T09:13:21;94169.50;;;1.29;48.75
49915;BME280;35806;47.958;13.158;2023-02-26T09:15:48;94174.92;;;1.10;47.85
49915;BME280;35806;47.958;13.158;2023-02-26T09:18:21;94178.21;;;1.80;46.33
49915;BME280;35806;47.958;13.158;2023-02-26T09:20:49;94176.26;;;1.16;48.23
49915;BME280;35806;47.958;13.158;2023-02-26T09:23:21;94179.11;;;1.67;48.96
49915;BME280;35806;47.958;13.158;2023-02-26T09:25:52;94183.89;;;2.05;48.61
49915;BME280;35806;47.958;13.158;2023-02-26T09:28:19;94187.84;;;2.29;47.01
49915;BME280;35806;47.958;13.158;2023-02-26T09:30:46;94192.75;;;2.79;47.54
49915;BME280;35806;47.958;13.158;2023-02-26T09:33:13;94195.94;;;2.66;45.70
49915;BME280;35806;47.958;13.158;2023-02-26T09:35:41;94193.37;;;1.25;47.57
49915;BME280;35806;47.958;13.158;2023-02-26T09:38:09;94196.56;;;0.78;47.80
49915;BME280;35806;47.958;13.158;2023-02-26T09:40:43;94197.06;;;1.46;48.06
49915;BME280;35806;47.958;13.158;2023-02-26T09:43:26;94197.47;;;1.00;48.77
49915;BME280;35806;47.958;13.158;2023-02-26T09:45:58;94199.84;;;1.47;49.80
49915;BME280;35806;47.958;13.158;2023-02-26T09:48:28;94208.77;;;-0.36;50.66
49915;BME280;35806;47.958;13.158;2023-02-26T09:50:58;94204.15;;;0.50;50.62
49915;BME280;35806;47.958;13.158;2023-02-26T09:53:27;94211.16;;;-0.25;50.77
49915;BME280;35806;47.958;13.158;2023-02-26T09:55:57;94217.57;;;0.32;51.63
49915;BME280;35806;47.958;13.158;2023-02-26T09:58:29;94217.96;;;0.27;51.88
49915;BME280;35806;47.958;13.158;2023-02-26T10:01:03;94222.74;;;0.24;52.34
49915;BME280;35806;47.958;13.158;2023-02-26T10:03:43;94229.41;;;-0.12;53.15
49915;BME280;35806;47.958;13.158;2023-02-26T10:06:20;94235.57;;;-1.47;57.99
49915;BME280;35806;47.958;13.158;2023-02-26T10:09:00;94234.92;;;-1.22;55.92
49915;BME280;35806;47.958;13.158;2023-02-26T10:11:46;94236.50;;;-0.95;56.99
49915;BME280;35806;47.958;13.158;2023-02-26T10:14:18;94240.54;;;-0.93;54.92
49915;BME280;35806;47.958;13.158;2023-02-26T10:16:52;94245.52;;;-0.13;53.23
49915;BME280;35806;47.958;13.158;2023-02-26T10:19:26;94247.53;;;-0.93;54.23
49915;BME280;35806;47.958;13.158;2023-02-26T10:21:57;94242.79;;;-0.36;53.06
49915;BME280;35806;47.958;13.158;2023-02-26T10:24:31;94243.34;;;-0.52;54.36
49915;BME280;35806;47.958;13.158;2023-02-26T10:27:05;94246.91;;;-1.19;55.73
49915;BME280;35806;47.958;13.158;2023-02-26T10:29:36;94247.19;;;-1.70;58.38
49915;BME280;35806;47.958;13.158;2023-02-26T10:32:19;94250.63;;;-1.03;56.27
49915;BME280;35806;47.958;13.158;2023-02-26T10:34:53;94249.40;;;-0.98;56.07
49915;BME280;35806;47.958;13.158;2023-02-26T10:37:27;94249.78;;;-1.35;56.19
49915;BME280;35806;47.958;13.158;2023-02-26T10:40:02;94248.30;;;-1.12;55.40
49915;BME280;35806;47.958;13.158;2023-02-26T10:42:36;94246.76;;;-0.62;55.39
49915;BME280;35806;47.958;13.158;2023-02-26T10:45:16;94245.08;;;-1.18;56.41
49915;BME280;35806;47.958;13.158;2023-02-26T10:47:52;94243.62;;;-1.81;57.72
49915;BME280;35806;47.958;13.158;2023-02-26T10:50:24;94240.18;;;-1.53;57.21
49915;BME280;35806;47.958;13.158;2023-02-26T10:52:52;94236.77;;;-1.43;56.41
49915;BME280;35806;47.958;13.158;2023-02-26T10:55:29;94233.07;;;-2.05;59.77
49915;BME280;35806;47.958;13.158;2023-02-26T10:58:03;94230.96;;;-1.96;59.15
49915;BME280;35806;47.958;13.158;2023-02-26T11:00:33;94228.68;;;-1.76;59.26
49915;BME280;35806;47.958;13.158;2023-02-26T11:03:07;94231.51;;;-1.22;58.47
49915;BME280;35806;47.958;13.158;2023-02-26T11:05:38;94230.76;;;-1.69;58.58
49915;BME280;35806;47.958;13.158;2023-02-26T11:08:11;94226.71;;;-1.34;59.31
49915;BME280;35806;47.958;13.158;2023-02-26T11:10:44;94225.92;;;-1.22;58.03
49915;BME280;35806;47.958;13.158;2023-02-26T11:13:13;94231.95;;;-1.34;59.58
49915;BME280;35806;47.958;13.158;2023-02-26T11:15:42;94231.03;;;-1.64;58.09
49915;BME280;35806;47.958;13.158;2023-02-26T11:18:14;94221.86;;;-1.84;60.30
49915;BME280;35806;47.958;13.158;2023-02-26T11:20:45;94222.49;;;-2.97;65.58
49915;BME280;35806;47.958;13.158;2023-02-26T11:23:16;94212.28;;;-2.76;65.36
49915;BME280;35806;47.958;13.158;2023-02-26T11:25:44;94205.99;;;-3.35;66.35
49915;BME280;35806;47.958;13.158;2023-02-26T11:28:44;94208.63;;;-3.72;68.43
49915;BME280;35806;47.958;13.158;2023-02-26T11:31:16;94211.32;;;-4.33;69.17
49915;BME280;35806;47.958;13.158;2023-02-26T11:33:47;94212.53;;;-3.67;67.08
49915;BME280;35806;47.958;13.158;2023-02-26T11:36:18;94214.79;;;-3.35;64.83
49915;BME280;35806;47.958;13.158;2023-02-26T11:38:54;94226.90;;;-2.75;63.42
49915;BME280;35806;47.958;13.158;2023-02-26T11:41:24;94232.50;;;-1.19;61.05
49915;BME280;35806;47.958;13.158;2023-02-26T11:43:59;94236.95;;;-1.05;58.20
49915;BME280;35806;47.958;13.158;2023-02-26T11:46:27;94228.97;;;0.26;54.53
49915;BME280;35806;47.958;13.158;2023-02-26T11:48:57;94218.48;;;1.33;55.50
49915;BME280;35806;47.958;13.158;2023-02-26T11:51:27;94222.16;;;2.13;49.59
49915;BME280;35806;47.958;13.158;2023-02-26T11:53:56;94224.31;;;2.44;50.40
49915;BME280;35806;47.958;13.158;2023-02-26T11:56:30;94227.79;;;2.94;47.78
49915;BME280;35806;47.958;13.158;2023-02-26T11:58:59;94234.68;;;3.60;47.17
49915;BME280;35806;47.958;13.158;2023-02-26T12:01:29;94241.77;;;4.35;46.12
49915;BME280;35806;47.958;13.158;2023-02-26T12:04:00;94239.39;;;4.68;45.95
49915;BME280;35806;47.958;13.158;2023-02-26T12:06:27;94237.94;;;4.47;45.52
49915;BME280;35806;47.958;13.158;2023-02-26T12:08:55;94241.87;;;3.82;44.93
49915;BME280;35806;47.958;13.158;2023-02-26T12:12:08;94249.41;;;3.24;46.35
49915;BME280;35806;47.958;13.158;2023-02-26T12:15:04;94250.05;;;1.40;49.79
49915;BME280;35806;47.958;13.158;2023-02-26T12:17:43;94258.62;;;0.25;52.83
49915;BME280;35806;47.958;13.158;2023-02-26T12:20:26;94257.29;;;1.05;50.77
49915;BME280;35806;47.958;13.158;2023-02-26T12:23:10;94260.59;;;1.91;49.53
49915;BME280;35806;47.958;13.158;2023-02-26T12:26:22;94265.44;;;1.80;49.53
49915;BME280;35806;47.958;13.158;2023-02-26T12:29:26;94260.47;;;3.01;46.36
49915;BME280;35806;47.958;13.158;2023-02-26T12:32:26;94259.72;;;2.34;45.50
49915;BME280;35806;47.958;13.158;2023-02-26T12:35:38;94251.76;;;1.90;45.01
49915;BME280;35806;47.958;13.158;2023-02-26T12:38:18;94250.62;;;1.02;46.81
49915;BME280;35806;47.958;13.158;2023-02-26T12:40:59;94251.85;;;1.07;49.06
49915;BME280;35806;47.958;13.158;2023-02-26T12:43:36;94245.26;;;1.82;49.04
49915;BME280;35806;47.958;13.158;2023-02-26T12:46:17;94245.03;;;2.08;47.28
49915;BME280;35806;47.958;13.158;2023-02-26T12:48:59;94244.88;;;2.94;45.22
49915;BME280;35806;47.958;13.158;2023-02-26T12:51:40;94246.77;;;2.98;45.80
49915;BME280;35806;47.958;13.158;2023-02-26T12:54:32;94246.73;;;2.96;43.82
49915;BME280;35806;47.958;13.158;2023-02-26T12:57:16;94255.33;;;3.19;45.25
49915;BME280;35806;47.958;13.158;2023-02-26T12:59:59;94266.21;;;3.31;44.23
49915;BME280;35806;47.958;13.158;2023-02-26T13:03:47;94274.52;;;3.16;44.44
49915;BME280;35806;47.958;13.158;2023-02-26T13:06:39;94262.49;;;4.56;42.37
49915;BME280;35806;47.958;13.158;2023-02-26T13:09:20;94257.28;;;5.22;42.89
49915;BME280;35806;47.958;13.158;2023-02-26T13:11:59;94254.00;;;4.61;40.01
49915;BME280;35806;47.958;13.158;2023-02-26T13:14:40;94251.92;;;5.01;44.39
49915;BME280;35806;47.958;13.158;2023-02-26T13:17:20;94263.32;;;5.59;41.83
49915;BME280;35806;47.958;13.158;2023-02-26T13:19:54;94266.62;;;2.42;47.57
49915;BME280;35806;47.958;13.158;2023-02-26T13:22:26;94275.56;;;-0.92;57.11
49915;BME280;35806;47.958;13.158;2023-02-26T13:24:58;94281.51;;;-1.74;58.27
49915;BME280;35806;47.958;13.158;2023-02-26T13:27:31;94277.64;;;-2.62;61.07
49915;BME280;35806;47.958;13.158;2023-02-26T13:30:15;94278.88;;;-3.09;62.89
49915;BME280;35806;47.958;13.158;2023-02-26T13:32:45;94282.10;;;-2.95;64.85
49915;BME280;35806;47.958;13.158;2023-02-26T13:35:19;94284.51;;;-2.75;62.49
49915;BME280;35806;47.958;13.158;2023-02-26T13:37:49;94291.54;;;-3.73;68.06